Terminal Aerodrome Forecast
Issued by NWS Upton, NY

Home | Current Version | Previous Version | Text Only | Print | Product List | Glossary On
Versions: 1 2 3 4 5 6 7 8 9 10 11 12 13 14 15 16 17 18 19 20 21 22 23 24 25 26 27 28
000
FTUS41 KOKX 211100
TAFBDR
TAF
KBDR 211135Z 2112/2212 VRB03KT P6SM SCT040 BKN150
     FM211400 12007KT P6SM BKN040 BKN150
     FM220000 11004KT P6SM SCT015 BKN040
      TEMPO 2203/2206 BKN015
     FM220600 09004KT 6SM BR BKN015 OVC030 PROB30 2206/2212 -SHRA=

USA.gov is the U.S. government's official web portal to all federal, state and local government web resources and services.